createdAt,value
2022-10-12T00:04:46.797Z,8.23
2022-10-12T00:09:48.351Z,9.82
2022-10-12T00:14:50.746Z,6.55
2022-10-12T00:19:52.301Z,8.52
2022-10-12T00:24:53.981Z,5.78
2022-10-12T00:29:55.559Z,10.50
2022-10-12T00:34:57.131Z,7.45
2022-10-12T00:39:58.706Z,6.55
2022-10-12T00:45:00.263Z,5.75
2022-10-12T00:50:10.916Z,8.00
2022-10-12T00:55:17.799Z,5.97
2022-10-12T01:00:20.761Z,14.00
2022-10-12T01:05:23.093Z,6.03
2022-10-12T01:10:24.710Z,8.30
2022-10-12T01:15:33.334Z,6.88
2022-10-12T01:20:47.574Z,7.07
2022-10-12T01:26:21.437Z,10.35
2022-10-12T01:31:32.933Z,6.05
2022-10-12T01:36:42.967Z,10.40
2022-10-12T01:41:48.753Z,4.70
2022-10-12T01:46:52.349Z,7.65
2022-10-12T01:52:10.652Z,5.95
2022-10-12T01:57:21.008Z,6.53
2022-10-12T02:02:34.855Z,6.85
2022-10-12T02:07:47.538Z,5.88
2022-10-12T02:12:50.056Z,5.32
2022-10-12T02:17:53.179Z,7.22
2022-10-12T02:22:55.001Z,7.22
2022-10-12T02:28:03.386Z,4.95
2022-10-12T02:33:17.532Z,3.53
2022-10-12T02:38:41.191Z,4.82
2022-10-12T02:43:52.242Z,7.18
2022-10-12T02:48:55.828Z,6.13
2022-10-12T02:53:57.450Z,8.07
2022-10-12T02:58:59.129Z,10.10
2022-10-12T03:04:00.676Z,10.10
2022-10-12T03:09:02.584Z,7.53
2022-10-12T03:14:04.576Z,4.90
2022-10-12T03:19:06.306Z,6.18
2022-10-12T03:24:07.933Z,7.70
2022-10-12T03:29:09.567Z,12.00
2022-10-12T03:34:11.231Z,8.93
2022-10-12T03:39:12.833Z,9.05
2022-10-12T03:44:14.431Z,8.45
2022-10-12T03:49:16.042Z,6.90
2022-10-12T03:54:17.593Z,8.27
2022-10-12T03:59:19.211Z,9.27
2022-10-12T04:04:24.303Z,11.23
2022-10-12T04:09:25.959Z,12.43
2022-10-12T04:14:27.556Z,8.15
2022-10-12T04:19:29.150Z,7.72
2022-10-12T04:24:30.855Z,11.88
2022-10-12T04:29:32.581Z,9.15
2022-10-12T04:34:36.047Z,7.53
2022-10-12T04:39:37.663Z,9.75
2022-10-12T04:44:39.278Z,8.23
2022-10-12T04:49:40.866Z,9.10
2022-10-12T04:54:42.464Z,11.43
2022-10-12T04:59:44.092Z,11.55
2022-10-12T05:04:45.714Z,11.68
2022-10-12T05:09:47.343Z,21.45
2022-10-12T05:14:48.886Z,8.85
2022-10-12T05:19:50.520Z,12.15
2022-10-12T05:24:53.903Z,16.23
2022-10-12T05:29:55.798Z,13.48
2022-10-12T05:34:57.571Z,11.07
2022-10-12T05:39:59.222Z,13.38
2022-10-12T05:45:01.243Z,9.82
2022-10-12T05:50:03.730Z,10.40
2022-10-12T05:55:05.916Z,9.93
2022-10-12T06:00:09.658Z,10.07
2022-10-12T06:05:14.410Z,10.20
2022-10-12T06:10:16.074Z,8.90
2022-10-12T06:15:17.804Z,8.23
2022-10-12T06:20:19.577Z,16.17
2022-10-12T06:25:21.185Z,10.57
2022-10-12T06:30:23.070Z,26.05
2022-10-12T06:35:24.835Z,9.57
2022-10-12T06:40:26.606Z,8.98
2022-10-12T06:45:29.821Z,7.32
2022-10-12T06:50:31.496Z,10.07
2022-10-12T06:55:33.154Z,12.50
2022-10-12T07:00:35.197Z,8.27
2022-10-12T07:05:36.728Z,11.23
2022-10-12T07:10:38.322Z,8.15
2022-10-12T07:15:39.887Z,7.97
2022-10-12T07:20:41.442Z,6.95
2022-10-12T07:25:53.262Z,12.85
2022-10-12T07:30:54.897Z,14.38
2022-10-12T07:36:13.213Z,10.68
2022-10-12T07:41:16.146Z,10.38
2022-10-12T07:46:17.757Z,12.02
2022-10-12T07:51:19.632Z,6.25
2022-10-12T07:56:21.351Z,7.78
2022-10-12T08:01:24.834Z,6.78
2022-10-12T08:06:29.319Z,7.55
2022-10-12T08:11:31.081Z,9.38
2022-10-12T08:16:32.792Z,6.55
2022-10-12T08:21:34.459Z,6.82
2022-10-12T08:26:36.477Z,4.95
2022-10-12T08:31:38.095Z,6.82
2022-10-12T08:36:39.667Z,7.60
2022-10-12T08:41:56.518Z,13.80
2022-10-12T08:47:04.429Z,6.60
2022-10-12T08:52:20.770Z,7.40
2022-10-12T08:57:22.386Z,6.87
2022-10-12T09:03:07.118Z,7.35
2022-10-12T09:08:50.650Z,5.03
2022-10-12T09:14:18.346Z,7.75
2022-10-12T09:19:42.577Z,11.52
2022-10-12T09:24:47.817Z,7.65
2022-10-12T09:29:55.402Z,7.15
2022-10-12T09:34:58.256Z,6.95
2022-10-12T09:40:00.172Z,8.48
2022-10-12T09:45:12.484Z,6.57
2022-10-12T09:50:37.169Z,11.52
2022-10-12T09:55:38.837Z,6.10
2022-10-12T10:00:40.536Z,6.38
2022-10-12T10:05:42.261Z,5.13
2022-10-12T10:10:55.486Z,5.90
2022-10-12T10:16:11.436Z,6.38
2022-10-12T10:21:15.157Z,12.43
2022-10-12T10:26:19.247Z,7.63
2022-10-12T10:31:25.529Z,4.35
2022-10-12T10:36:27.782Z,5.88
2022-10-12T10:41:36.940Z,10.05
2022-10-12T10:46:38.580Z,6.93
2022-10-12T10:51:41.998Z,5.78
2022-10-12T10:56:44.532Z,3.75
2022-10-12T11:01:55.823Z,3.38
2022-10-12T11:07:03.524Z,7.72
2022-10-12T11:12:17.392Z,4.05
2022-10-12T11:17:42.200Z,6.35
2022-10-12T11:22:57.627Z,5.53
2022-10-12T11:27:59.466Z,5.50
2022-10-12T11:33:05.355Z,4.50
2022-10-12T11:38:35.814Z,5.30
2022-10-12T11:43:56.453Z,3.85
2022-10-12T11:49:07.223Z,3.88
2022-10-12T11:54:24.841Z,5.55
2022-10-12T11:59:34.740Z,5.05
2022-10-12T12:04:42.785Z,5.05
2022-10-12T12:09:50.226Z,6.63
2022-10-12T12:14:55.568Z,4.40
2022-10-12T12:20:01.673Z,6.63
2022-10-12T12:25:10.979Z,6.07
2022-10-12T12:30:18.677Z,4.60
2022-10-12T12:35:34.203Z,4.18
2022-10-12T12:40:36.319Z,3.90
2022-10-12T12:45:41.326Z,7.82
2022-10-12T12:50:43.099Z,7.43
2022-10-12T12:55:50.652Z,5.28
2022-10-12T13:01:17.156Z,4.80
2022-10-12T13:06:55.026Z,8.98
2022-10-12T13:12:05.699Z,3.60
2022-10-12T13:17:40.668Z,5.93
2022-10-12T13:22:44.470Z,5.32
2022-10-12T13:27:51.800Z,5.18
2022-10-12T13:33:02.685Z,6.60
2022-10-12T13:38:16.192Z,4.78
2022-10-12T13:43:28.660Z,7.47
2022-10-12T13:48:57.401Z,6.22
2022-10-12T13:53:52.539Z,6.18
2022-10-12T13:58:59.726Z,4.32
2022-10-12T14:04:05.562Z,5.95
2022-10-12T14:09:15.017Z,5.33
2022-10-12T14:14:33.342Z,7.65
2022-10-12T14:19:45.359Z,6.93
2022-10-12T14:24:47.764Z,5.43
2022-10-12T14:30:03.877Z,4.10
2022-10-12T14:35:08.486Z,5.25
2022-10-12T14:40:27.402Z,5.88
2022-10-12T14:45:29.575Z,7.60
2022-10-12T14:50:32.813Z,6.18
2022-10-12T14:55:34.673Z,6.35
2022-10-12T15:00:37.708Z,8.55
2022-10-12T15:05:39.371Z,5.10
2022-10-12T15:10:40.942Z,7.03
2022-10-12T15:15:46.479Z,9.13
2022-10-12T15:20:49.736Z,7.55
2022-10-12T15:25:56.191Z,5.88
2022-10-12T15:36:21.344Z,6.43
2022-10-12T15:41:25.737Z,6.07
2022-10-12T15:46:27.832Z,6.55
2022-10-12T15:51:29.653Z,6.22
2022-10-12T15:56:31.406Z,8.93
2022-10-12T16:01:35.102Z,5.78
2022-10-12T16:06:36.692Z,8.00
2022-10-12T16:11:38.267Z,7.57
2022-10-12T16:16:39.859Z,6.60
2022-10-12T16:21:41.429Z,6.78
2022-10-12T16:26:45.102Z,6.57
2022-10-12T16:31:47.011Z,9.30
2022-10-12T16:36:48.658Z,9.68
2022-10-12T16:41:50.331Z,12.65
2022-10-12T16:46:51.986Z,11.05
2022-10-12T16:51:53.747Z,12.95
2022-10-12T16:56:56.727Z,13.50
2022-10-12T17:01:58.323Z,12.75
2022-10-12T17:07:00.002Z,11.35
2022-10-12T17:12:01.762Z,11.73
2022-10-12T17:17:04.100Z,10.55
2022-10-12T17:22:07.078Z,8.48
2022-10-12T17:27:11.230Z,11.20
2022-10-12T17:32:13.021Z,12.70
2022-10-12T17:37:15.709Z,13.60
2022-10-12T17:42:18.015Z,10.77
2022-10-12T17:47:20.101Z,10.80
2022-10-12T17:52:21.914Z,10.98
2022-10-12T17:57:23.548Z,9.32
2022-10-12T18:02:25.115Z,12.02
2022-10-12T18:07:26.698Z,10.32
2022-10-12T18:12:28.364Z,11.23
2022-10-12T18:17:29.941Z,12.90
2022-10-12T18:22:31.990Z,11.07
2022-10-12T18:27:33.877Z,10.45
2022-10-12T18:32:36.065Z,12.38
2022-10-12T18:37:38.105Z,11.32
2022-10-12T18:42:40.024Z,12.57
2022-10-12T18:47:42.003Z,14.23
2022-10-12T18:52:44.311Z,13.65
2022-10-12T18:57:45.916Z,12.38
2022-10-12T19:02:47.697Z,16.08
2022-10-12T19:07:49.660Z,13.10
2022-10-12T19:12:51.504Z,13.35
2022-10-12T19:17:53.307Z,17.50
2022-10-12T19:22:55.454Z,16.63
2022-10-12T19:27:57.189Z,20.88
2022-10-12T19:32:58.870Z,13.25
2022-10-12T19:38:00.455Z,13.43
2022-10-12T19:43:02.070Z,16.42
2022-10-12T19:48:04.378Z,16.88
2022-10-12T19:53:06.776Z,20.10
2022-10-12T19:58:08.593Z,17.15
2022-10-12T20:03:10.263Z,14.30
2022-10-12T20:08:13.014Z,11.98
2022-10-12T20:13:15.515Z,17.83
2022-10-12T20:18:17.264Z,14.38
2022-10-12T20:23:19.245Z,13.05
2022-10-12T20:28:22.239Z,14.52
2022-10-12T20:33:23.880Z,17.10
2022-10-12T20:38:25.513Z,14.80
2022-10-12T20:43:27.278Z,14.30
2022-10-12T20:48:29.645Z,16.33
2022-10-12T20:53:31.556Z,13.88
2022-10-12T20:58:33.368Z,12.15
2022-10-12T21:03:35.350Z,15.38
2022-10-12T21:08:37.701Z,17.38
2022-10-12T21:13:41.222Z,12.52
2022-10-12T21:18:43.233Z,18.77
2022-10-12T21:23:52.136Z,14.48
2022-10-12T21:28:53.989Z,12.05
2022-10-12T21:33:55.806Z,16.55
2022-10-12T21:38:57.586Z,15.05
2022-10-12T21:43:59.173Z,16.65
2022-10-12T21:49:02.426Z,14.23
2022-10-12T21:54:05.545Z,11.82
2022-10-12T21:59:07.109Z,12.05
2022-10-12T22:04:13.839Z,13.18
2022-10-12T22:09:19.301Z,21.80
2022-10-12T22:14:20.885Z,12.60
2022-10-12T22:19:22.536Z,13.50
2022-10-12T22:24:24.069Z,13.10
2022-10-12T22:29:25.670Z,16.88
2022-10-12T22:34:27.317Z,13.30
2022-10-12T22:39:28.999Z,12.20
2022-10-12T22:44:30.546Z,11.80
2022-10-12T22:49:32.126Z,11.93
2022-10-12T22:54:33.761Z,11.05
2022-10-12T22:59:35.445Z,11.90
2022-10-12T23:04:37.012Z,11.18
2022-10-12T23:09:38.690Z,14.63
2022-10-12T23:14:40.242Z,13.10
2022-10-12T23:19:41.817Z,12.98
2022-10-12T23:24:43.563Z,12.18
2022-10-12T23:29:47.009Z,12.07
2022-10-12T23:34:50.170Z,11.35
2022-10-12T23:39:51.674Z,11.13
2022-10-12T23:44:53.251Z,11.95
2022-10-12T23:49:54.804Z,11.40
2022-10-12T23:54:56.388Z,16.15
2022-10-12T23:59:57.924Z,11.77
